Latest Weather Observations for Oakey

IDQ60801

Issued at 6:35 am EST Friday 28 November 2014 (issued every 30 minutes, with the page automatically refreshed every 10 minutes)

About weather observations | Map of weather stations | Latest weather observations for QLD | Other Formats
Station Details ID: 041359 Name: OAKEY AERO Lat: -27.40 Lon: 151.74 Height: 405.69 m
Data from the previous 72 hours. | See also: Recent months at Oakey
Date/Time
EST
Temp
°C
App
Temp
°C
Dew
Point
Rel
Hum
%
Delta-T
°C
Wind Press
QNH
hPa
Press
MSL
hPa
Rain
since 9 am
mm
Dir
 
Spd
km/h
Gust
km/h
Spd
kts
Gust
kts
28/06:30am 19.6 16.6 15.9 79 2.2 E 26 33 14 18 1019.4 - 8.2
28/06:00am 19.1 17.1 15.6 80 2.1 E 20 28 11 15 1019.2 1017.5 8.2
28/05:52am 19.1 17.2 15.8 81 2.0 E 20 28 11 15 1019.0 - 8.2
28/05:30am 19.0 16.7 15.7 81 2.0 E 22 30 12 16 1018.6 - 8.2
28/05:00am 18.8 16.1 15.5 81 2.0 E 24 32 13 17 1018.3 - 8.2
28/04:30am 18.8 16.4 15.5 81 2.0 E 22 30 12 16 1018.0 - 8.2
28/04:00am 18.9 16.9 15.6 81 2.0 E 20 32 11 17 1017.8 - 8.2
28/03:53am 18.9 17.0 15.8 82 1.9 E 20 28 11 15 1017.7 - 8.2
28/03:30am 19.0 17.3 16.2 84 1.7 E 20 28 11 15 1017.4 - 8.2
28/03:25am 19.1 17.3 16.1 83 1.8 E 20 28 11 15 1017.4 - 8.2
28/03:04am 19.1 17.0 16.1 83 1.8 E 22 28 12 15 1017.3 - 8.2
28/03:00am 19.1 17.0 16.3 84 1.7 E 22 28 12 15 1017.3 1015.6 8.2
28/02:30am 19.2 16.9 16.6 85 1.6 E 24 32 13 17 1017.2 - 8.2
28/02:18am 19.2 16.9 16.6 85 1.6 E 24 30 13 16 1017.2 - 8.2
28/02:00am 19.1 16.7 16.5 85 1.6 E 24 33 13 18 1017.1 - 8.2
28/01:39am 19.3 16.6 16.7 85 1.6 E 26 35 14 19 1017.3 - 8.2
28/01:30am 19.5 16.8 16.7 84 1.7 ESE 26 35 14 19 1017.4 - 8.2
28/01:06am 19.5 16.4 16.5 83 1.8 E 28 37 15 20 1017.4 - 8.2
28/01:00am 19.7 16.7 16.7 83 1.8 ESE 28 37 15 20 1017.5 - 8.2
28/12:30am 19.5 17.3 16.9 85 1.6 E 24 35 13 19 1017.5 - 8.2
28/12:00am 19.5 17.3 16.9 85 1.6 E 24 35 13 19 1017.6 1015.9 8.0
 
Date/Time
EST
Temp
°C
App
Temp
°C
Dew
Point
Rel
Hum
%
Delta-T
°C
Wind Press
QNH
hPa
Press
MSL
hPa
Rain
since 9 am
mm
Dir
 
Spd
km/h
Gust
km/h
Spd
kts
Gust
kts
27/11:30pm 19.5 15.6 16.9 85 1.6 E 33 46 18 25 1017.5 - 8.0
27/11:00pm 19.6 16.0 17.2 86 1.5 E 32 44 17 24 1017.7 - 8.0
27/10:32pm 19.6 14.4 17.4 87 1.4 E 41 50 22 27 1017.8 - 8.0
27/10:30pm 19.5 14.3 17.5 88 1.2 E 41 50 22 27 1017.7 - 8.0
27/10:27pm 19.5 13.8 17.3 87 1.4 E 43 50 23 27 1017.6 - 8.0
27/10:13pm 19.6 15.8 17.2 86 1.5 ESE 33 41 18 22 1018.5 - 7.0
27/10:00pm 20.3 17.7 16.9 81 2.1 SSE 26 33 14 18 1019.2 - 5.6
27/09:30pm 20.2 16.4 16.6 80 2.2 E 32 43 17 23 1017.8 - 5.6
27/09:00pm 19.9 15.5 16.7 82 2.0 E 35 46 19 25 1017.6 1015.9 5.6
27/08:30pm 19.9 14.2 16.3 80 2.2 ENE 41 52 22 28 1017.3 - 5.6
27/08:00pm 19.6 13.0 16.4 82 2.0 ENE 46 59 25 32 1016.8 - 5.6
27/07:46pm 19.9 13.6 17.1 84 1.7 ENE 46 59 25 32 1016.7 - 5.4
27/07:37pm 19.7 12.7 17.3 86 1.5 ENE 50 63 27 34 1016.9 - 4.8
27/07:34pm 19.9 14.0 17.1 84 1.7 ESE 44 57 24 31 1016.9 - 2.8
27/07:31pm 20.8 15.8 17.0 79 2.4 ESE 39 46 21 25 1017.1 - 0.6
27/07:30pm 21.1 17.8 16.9 77 2.6 SSE 30 43 16 23 1017.4 - 0.2
27/07:15pm 21.8 18.1 15.9 69 3.6 ESE 30 43 16 23 1017.7 - 0.0
27/06:59pm 22.2 14.4 15.3 65 4.2 E 50 69 27 37 1015.9 - 0.0
27/06:30pm 23.0 14.6 15.6 63 4.5 E 54 69 29 37 1015.5 - 0.0
27/06:00pm 25.5 16.5 14.9 52 6.5 E 56 72 30 39 1014.8 1013.1 0.0
27/05:55pm 26.4 17.5 14.2 47 7.4 E 54 65 29 35 1014.8 - 0.0
27/05:49pm 29.2 24.2 12.2 35 10.1 ESE 30 56 16 30 1014.4 - 0.0
27/05:30pm 31.8 30.3 10.5 27 12.4 S 9 20 5 11 1013.9 - 0.0
27/05:00pm 31.7 29.0 10.4 27 12.4 WSW 15 20 8 11 1013.5 - 0.0
27/04:30pm 32.6 30.2 8.8 23 13.6 S 11 20 6 11 1013.1 - 0.0
27/04:00pm 31.6 28.9 10.3 27 12.4 S 15 24 8 13 1013.1 - 0.0
27/03:30pm 32.4 30.9 10.4 26 12.9 SW 9 17 5 9 1013.3 - 0.0
27/03:00pm 32.0 28.8 11.2 28 12.3 WSW 19 22 10 12 1013.7 1012.0 0.0
27/02:30pm 31.2 28.7 11.1 29 11.8 S 15 28 8 15 1014.2 - 0.0
27/02:00pm 31.0 29.4 12.8 32 11.0 SSW 13 22 7 12 1014.7 - 0.0
27/01:30pm 31.2 29.2 13.9 35 10.6 S 17 24 9 13 1015.1 - 0.0
27/01:00pm 31.0 28.0 13.7 34 10.6 SSW 22 30 12 16 1015.5 - 0.0
27/12:30pm 29.8 27.7 13.5 36 9.9 SW 17 30 9 16 1015.9 - 0.0
27/12:00pm 29.9 28.8 14.4 38 9.5 SW 13 24 7 13 1016.3 1014.6 0.0
27/11:30am 28.8 27.1 14.6 42 8.7 SW 17 24 9 13 1016.6 - 0.0
27/11:00am 28.6 27.5 14.4 41 8.7 W 13 22 7 12 1017.0 - 0.0
27/10:30am 27.9 26.9 13.4 40 8.7 WNW 11 24 6 13 1017.5 - 0.0
27/10:00am 27.9 26.4 13.1 40 8.9 W 13 17 7 9 1017.8 - 0.0
27/09:30am 26.8 26.8 13.5 44 8.0 SSE 6 11 3 6 1018.0 - 0.0
27/09:00am 26.2 25.0 14.0 47 7.4 N 13 20 7 11 1018.3 1016.6 0.0
27/08:30am 26.0 25.0 15.7 53 6.4 NNW 15 24 8 13 1018.3 - 0.0
27/08:00am 24.9 24.1 15.2 54 5.9 N 13 20 7 11 1018.3 - 0.0
27/07:30am 23.7 22.2 15.2 59 5.2 NNE 17 24 9 13 1018.4 - 0.0
27/07:00am 22.5 21.3 16.1 67 3.9 NNE 17 20 9 11 1018.4 - 0.0
27/06:30am 21.2 20.8 16.2 73 3.1 NE 13 17 7 9 1018.1 - 0.0
27/06:00am 20.1 19.9 16.7 81 2.1 ENE 13 15 7 8 1017.8 1016.1 0.0
27/05:30am 18.7 18.8 16.5 87 1.3 E 11 13 6 7 1017.6 - 0.0
27/05:00am 17.6 17.4 15.8 89 1.1 ENE 11 13 6 7 1017.2 - 0.0
27/04:30am 18.0 17.8 15.6 86 1.4 E 11 15 6 8 1017.1 - 0.0
27/04:00am 18.4 18.4 16.2 87 1.3 ENE 11 13 6 7 1016.7 - 0.0
27/03:30am 18.3 18.1 15.6 84 1.6 ENE 11 13 6 7 1016.5 - 0.0
27/03:00am 19.0 18.5 15.9 82 1.9 ESE 13 15 7 8 1016.5 1014.8 0.0
27/02:30am 19.6 18.3 15.7 78 2.4 ESE 17 20 9 11 1016.5 - 0.0
27/02:00am 20.0 19.4 15.6 76 2.7 ESE 13 15 7 8 1016.5 - 0.0
27/01:30am 20.1 20.4 15.9 77 2.6 SE 9 11 5 6 1016.7 - 0.0
27/01:00am 20.5 20.6 15.5 73 3.0 ENE 9 11 5 6 1016.7 - 0.0
27/12:30am 21.2 21.1 16.0 72 3.2 ENE 11 13 6 7 1016.9 - 0.0
27/12:00am 21.3 20.8 16.0 72 3.2 ENE 13 15 7 8 1017.2 1015.5 0.0
 
Date/Time
EST
Temp
°C
App
Temp
°C
Dew
Point
Rel
Hum
%
Delta-T
°C
Wind Press
QNH
hPa
Press
MSL
hPa
Rain
since 9 am
mm
Dir
 
Spd
km/h
Gust
km/h
Spd
kts
Gust
kts
26/11:30pm 21.3 20.0 15.8 71 3.4 NE 17 22 9 12 1017.2 - 0.0
26/11:00pm 21.3 20.4 15.8 71 3.4 ENE 15 19 8 10 1017.7 - 0.0
26/10:30pm 21.2 19.6 16.0 72 3.2 ENE 19 24 10 13 1018.3 - 0.0
26/10:00pm 21.0 18.8 16.0 73 3.1 ENE 22 30 12 16 1017.9 - 0.0
26/09:30pm 20.7 17.3 15.9 74 2.9 ENE 28 35 15 19 1017.8 - 0.0
26/09:00pm 20.6 16.7 16.4 77 2.6 ENE 32 41 17 22 1017.4 1015.7 0.0
26/08:30pm 21.3 19.1 14.9 67 3.8 ENE 20 24 11 13 1018.1 - 0.0
26/08:00pm 20.9 18.7 14.8 68 3.6 NE 20 28 11 15 1017.9 - 0.0
26/07:30pm 21.2 18.6 14.8 67 3.8 NE 22 26 12 14 1017.8 - 0.0
26/07:00pm 22.2 21.0 14.1 60 4.8 SE 13 17 7 9 1017.6 - 0.0
26/06:30pm 22.2 20.6 13.8 59 5.0 E 15 19 8 10 1017.5 - 0.0
26/06:00pm 22.6 21.8 13.9 58 5.2 S 11 13 6 7 1017.5 1015.8 0.0
26/05:30pm 22.5 20.6 14.1 59 5.0 S 17 20 9 11 1017.5 - 0.0
26/05:00pm 21.9 20.3 15.0 65 4.2 SSE 17 22 9 12 1017.5 - 0.0
26/04:30pm 22.4 19.1 15.0 63 4.5 S 26 32 14 17 1016.9 - 0.0
26/04:00pm 21.8 16.4 14.9 65 4.2 SSW 37 48 20 26 1016.7 - 0.0
26/03:30pm 22.8 16.4 14.4 59 5.0 SW 41 54 22 29 1016.1 - 0.0
26/03:00pm 23.1 16.3 14.7 59 5.1 SW 44 61 24 33 1015.9 1014.2 0.0
26/02:30pm 24.2 17.6 15.4 58 5.4 WSW 44 56 24 30 1015.8 - 0.0
26/02:21pm 25.2 20.5 14.3 50 6.6 W 32 48 17 26 1015.4 - 0.0
26/02:00pm 30.4 27.9 12.3 33 10.8 NE 17 24 9 13 1015.0 - 0.0
26/01:30pm 30.3 29.4 12.7 34 10.6 ENE 9 22 5 12 1015.1 - 0.0
26/01:00pm 31.6 29.8 13.4 33 11.1 E 15 22 8 12 1015.3 - 0.0
26/12:30pm 30.5 27.2 12.9 34 10.6 NNE 22 30 12 16 1015.8 - 0.0
26/12:00pm 30.3 27.7 13.1 34 10.4 ENE 19 30 10 16 1016.6 1014.9 0.0
26/11:30am 30.0 27.2 13.3 36 10.1 NE 20 30 11 16 1016.9 - 0.0
26/11:00am 30.5 29.8 14.2 37 10.0 N 11 17 6 9 1017.1 - 0.0
26/10:30am 28.1 26.5 14.0 42 8.6 N 15 24 8 13 1017.3 - 0.0
26/10:00am 29.4 27.8 15.1 41 8.9 NE 17 28 9 15 1017.7 - 0.0
26/09:30am 28.4 26.3 15.3 45 8.1 NE 20 30 11 16 1017.8 - 0.0
26/09:00am 27.5 25.2 15.8 48 7.3 NE 22 33 12 18 1017.8 1016.1 0.0
26/08:30am 27.7 26.3 16.9 51 6.9 NE 20 30 11 16 1018.0 - 0.0
26/08:00am 24.9 22.6 15.8 57 5.6 NE 22 28 12 15 1018.1 - 0.0
26/07:30am 24.3 21.6 16.6 62 4.8 NE 26 30 14 16 1018.1 - 0.0
26/07:00am 24.8 23.3 17.8 65 4.5 NE 22 30 12 16 1018.3 - 0.0
26/06:30am 23.6 21.7 17.6 69 3.8 ENE 24 32 13 17 1017.7 - 0.0
26/06:00am 22.8 21.4 17.9 74 3.1 ENE 22 30 12 16 1017.3 1015.6 0.0
26/05:30am 21.5 20.6 17.7 79 2.4 ENE 19 22 10 12 1017.2 - 0.0
26/05:00am 21.3 20.2 17.7 80 2.3 ENE 20 24 11 13 1016.9 - 0.0
26/04:30am 21.6 20.7 17.8 79 2.4 ENE 19 28 10 15 1016.7 - 0.0
26/04:00am 21.6 20.1 17.6 78 2.5 ENE 22 28 12 15 1016.0 - 0.0
26/03:30am 21.8 19.9 17.6 77 2.6 ENE 24 32 13 17 1015.9 - 0.0
26/03:00am 21.8 21.2 17.6 77 2.6 ENE 17 24 9 13 1015.8 1014.1 0.0
26/02:30am 22.0 20.1 17.6 76 2.8 ENE 24 30 13 16 1015.7 - 0.0
26/02:00am 22.1 19.3 17.2 74 3.1 ENE 28 33 15 18 1015.8 - 0.0
26/01:30am 22.1 18.8 17.0 73 3.2 ENE 30 41 16 22 1016.1 - 0.0
26/01:00am 22.3 19.3 16.8 71 3.4 ENE 28 37 15 20 1016.6 - 0.0
26/12:30am 22.7 18.8 16.9 70 3.6 ENE 33 44 18 24 1016.9 - 0.0
26/12:00am 22.7 18.1 17.2 71 3.4 ENE 37 48 20 26 1017.0 1015.3 0.0
 
Date/Time
EST
Temp
°C
App
Temp
°C
Dew
Point
Rel
Hum
%
Delta-T
°C
Wind Press
QNH
hPa
Press
MSL
hPa
Rain
since 9 am
mm
Dir
 
Spd
km/h
Gust
km/h
Spd
kts
Gust
kts
25/11:30pm 23.0 18.0 17.0 69 3.8 E 39 57 21 31 1017.1 - 0.0
25/11:29pm 23.0 18.0 17.0 69 3.8 E 39 57 21 31 1017.1 - 0.0
25/11:00pm 23.5 17.6 16.8 66 4.2 ENE 43 56 23 30 1017.1 - 0.0
25/10:43pm 23.7 18.2 16.7 65 4.4 E 41 59 22 32 1017.2 - 0.0
25/10:30pm 24.0 18.9 16.8 64 4.5 E 39 54 21 29 1017.3 - 0.0
25/10:00pm 24.2 19.1 16.7 63 4.7 E 39 56 21 30 1017.3 - 0.0
25/09:51pm 24.4 20.0 16.6 61 4.9 ESE 35 56 19 30 1017.2 - 0.0
25/09:30pm 24.8 20.0 16.5 60 5.2 ESE 37 52 20 28 1017.0 - 0.0
25/09:00pm 24.7 20.8 16.9 62 4.9 SE 33 44 18 24 1017.0 1015.3 0.0
25/08:30pm 24.9 19.9 17.1 62 4.9 SSE 39 46 21 25 1016.8 - 0.0
25/08:00pm 25.6 19.8 17.0 59 5.4 S 43 57 23 31 1015.9 - 0.0
25/07:30pm 26.1 20.3 16.9 57 5.8 S 43 54 23 29 1015.1 - 0.0
25/07:03pm 28.7 23.5 15.6 45 8.2 S 37 59 20 32 1014.7 - 0.0
25/07:00pm 29.0 24.7 15.9 45 8.2 S 33 50 18 27 1014.5 - 0.0
25/06:45pm 29.8 24.6 14.4 39 9.5 SSW 35 54 19 29 1014.2 - 0.0
25/06:39pm 30.6 26.0 13.4 35 10.5 SSW 30 46 16 25 1014.0 - 0.0
25/06:30pm 32.7 29.8 12.3 28 12.3 NE 19 20 10 11 1013.3 - 0.0
25/06:00pm 33.7 32.9 9.7 23 14.0 SW 4 7 2 4 1012.3 1010.6 0.0
25/05:30pm 34.0 33.9 9.3 22 14.3 CALM 0 0 0 0 1011.9 - 0.0
25/05:00pm 34.5 34.1 9.7 22 14.5 WNW 2 9 1 5 1011.7 - 0.0
25/04:30pm 34.5 33.0 9.0 21 14.7 ENE 7 11 4 6 1011.6 - 0.0
25/04:00pm 34.6 32.9 9.8 22 14.5 E 9 13 5 7 1011.8 - 0.0
25/03:30pm 34.1 32.3 9.4 22 14.3 SSE 9 15 5 8 1012.1 - 0.0
25/03:00pm 34.1 31.9 9.4 22 14.3 S 11 22 6 12 1012.3 1010.6 0.0
25/02:30pm 34.3 33.1 10.2 23 14.2 N 7 13 4 7 1012.5 - 0.0
25/02:00pm 34.4 33.0 12.1 26 13.5 W 11 20 6 11 1012.8 - 0.0
25/01:30pm 33.9 33.3 12.3 27 13.1 SSW 7 13 4 7 1013.4 - 0.0
25/01:00pm 33.7 32.6 13.2 29 12.6 NW 11 17 6 9 1013.6 - 0.0
25/12:30pm 33.3 30.8 13.4 30 12.2 N 19 24 10 13 1014.1 - 0.0
25/12:00pm 32.3 32.4 14.0 33 11.3 WNW 6 11 3 6 1014.6 1012.9 0.0
25/11:30am 31.6 31.6 14.3 35 10.7 NNW 7 13 4 7 1015.0 - 0.0
25/11:00am 32.1 32.4 16.0 38 10.2 NW 9 19 5 10 1015.5 - 0.0
25/10:30am 29.9 28.8 15.2 41 9.2 N 15 22 8 12 1016.1 - 0.0
25/10:00am 28.9 28.4 15.8 45 8.2 NNW 13 26 7 14 1016.5 - 0.0
25/09:30am 27.4 27.5 15.4 48 7.4 NNW 9 19 5 10 1016.9 - 0.0
25/09:00am 26.1 26.6 15.5 52 6.5 W 7 13 4 7 1017.3 1015.6 0.0
25/08:30am 25.0 25.6 15.3 55 5.9 NNE 6 9 3 5 1017.4 - 0.0
25/08:00am 24.8 25.7 16.0 58 5.5 SSE 6 9 3 5 1017.4 - 0.0
25/07:30am 23.4 23.9 15.5 61 4.8 S 7 13 4 7 1017.4 - 0.0
25/07:00am 22.8 23.3 15.6 64 4.4 ENE 7 13 4 7 1017.3 - 0.0

Other Formats:

Comma delimited format used in spreadsheet applications
http://www.bom.gov.au/fwo/IDQ60801/IDQ60801.94552.axf

JavaScript Object Notation format (JSON) in row-major order
http://www.bom.gov.au/fwo/IDQ60801/IDQ60801.94552.json